QXE39Q PAJN-PANC
Flight info
| Callsign | QXE39Q |
|---|---|
| Flight time | 1h 24m |
| Altitude | 34000 |
| Route | PAJN/26 N0423F340 ASORT3 ASORT DCT YESKA DCT TED DCT PANC/07L |
| Aircraft | CRJ7/M-SDE2E3FGHIRWXY/L |
Departure
| Time | 2026-05-04 19:53 |
|---|---|
| Airport | Juneau International Airport (PAJN) |
Arrival
| Time | 2026-05-04 21:17 |
|---|---|
| Airport | Ted Stevens Anchorage International Airport (PANC) |
| Time | Latitude | Longitude | Altitude | Speed | Heading |
|---|---|---|---|---|---|
| 2026-05-04 19:33 | 58.35781 | -134.58011 | 32 ft | 0 kts | 194° |
| 2026-05-04 19:48 | 58.35768 | -134.58016 | 32 ft | 1 kts | 177° |
| 2026-05-04 19:48 | 58.35754 | -134.58009 | 32 ft | 5 kts | 156° |
| 2026-05-04 19:48 | 58.35701 | -134.57990 | 32 ft | 10 kts | 182° |
| 2026-05-04 19:48 | 58.35651 | -134.57941 | 32 ft | 6 kts | 111° |
| 2026-05-04 19:49 | 58.35633 | -134.57800 | 32 ft | 16 kts | 104° |
| 2026-05-04 19:49 | 58.35595 | -134.57534 | 32 ft | 25 kts | 106° |
| 2026-05-04 19:49 | 58.35550 | -134.57218 | 32 ft | 25 kts | 103° |
| 2026-05-04 19:49 | 58.35508 | -134.56909 | 32 ft | 24 kts | 105° |
| 2026-05-04 19:50 | 58.35463 | -134.56598 | 32 ft | 24 kts | 105° |
| 2026-05-04 19:50 | 58.35421 | -134.56289 | 32 ft | 24 kts | 104° |
| 2026-05-04 19:50 | 58.35379 | -134.55983 | 32 ft | 24 kts | 105° |
| 2026-05-04 19:50 | 58.35342 | -134.55718 | 32 ft | 16 kts | 105° |
| 2026-05-04 19:51 | 58.35299 | -134.55554 | 31 ft | 9 kts | 159° |
| 2026-05-04 19:51 | 58.35239 | -134.55561 | 29 ft | 10 kts | 195° |
| 2026-05-04 19:51 | 58.35217 | -134.55599 | 29 ft | 2 kts | 260° |
| 2026-05-04 19:51 | 58.35220 | -134.55654 | 29 ft | 5 kts | 285° |
| 2026-05-04 19:52 | 58.35229 | -134.55716 | 30 ft | 5 kts | 285° |
| 2026-05-04 19:52 | 58.35238 | -134.55780 | 30 ft | 5 kts | 285° |
| 2026-05-04 19:52 | 58.35250 | -134.55858 | 30 ft | 7 kts | 284° |
| 2026-05-04 19:52 | 58.35263 | -134.55958 | 30 ft | 14 kts | 284° |
| 2026-05-04 19:53 | 58.35351 | -134.56581 | 32 ft | 85 kts | 284° |
| 2026-05-04 19:53 | 58.35555 | -134.58074 | 31 ft | 145 kts | 285° |
| 2026-05-04 19:53 | 58.35855 | -134.60188 | 181 ft | 179 kts | 285° |
| 2026-05-04 19:53 | 58.36121 | -134.62528 | 1019 ft | 183 kts | 282° |
| 2026-05-04 19:54 | 58.36314 | -134.64896 | 1862 ft | 180 kts | 277° |
| 2026-05-04 19:54 | 58.36475 | -134.67285 | 2551 ft | 189 kts | 276° |
| 2026-05-04 19:54 | 58.36657 | -134.69924 | 3183 ft | 211 kts | 279° |
| 2026-05-04 19:54 | 58.36880 | -134.72806 | 3903 ft | 229 kts | 278° |
| 2026-05-04 19:55 | 58.37122 | -134.75930 | 4632 ft | 247 kts | 278° |
| 2026-05-04 19:55 | 58.37385 | -134.79233 | 5524 ft | 254 kts | 278° |
| 2026-05-04 19:55 | 58.37650 | -134.82573 | 6571 ft | 259 kts | 278° |
| 2026-05-04 19:55 | 58.37924 | -134.86047 | 7355 ft | 269 kts | 278° |
| 2026-05-04 19:56 | 58.38218 | -134.89587 | 8322 ft | 272 kts | 279° |
| 2026-05-04 19:56 | 58.38552 | -134.93156 | 9308 ft | 275 kts | 280° |
| 2026-05-04 19:56 | 58.38856 | -134.96774 | 10278 ft | 279 kts | 279° |
| 2026-05-04 19:56 | 58.39160 | -135.00583 | 10688 ft | 301 kts | 278° |
| 2026-05-04 19:57 | 58.39675 | -135.04512 | 10949 ft | 320 kts | 295° |
| 2026-05-04 19:57 | 58.41089 | -135.07945 | 11378 ft | 333 kts | 320° |
| 2026-05-04 19:57 | 58.42977 | -135.10449 | 12038 ft | 338 kts | 324° |
| 2026-05-04 19:57 | 58.44901 | -135.13049 | 12706 ft | 341 kts | 320° |
| 2026-05-04 19:58 | 58.46685 | -135.16043 | 13382 ft | 342 kts | 311° |
| 2026-05-04 19:58 | 58.48216 | -135.19545 | 14069 ft | 345 kts | 304° |
| 2026-05-04 19:58 | 58.49515 | -135.23425 | 14721 ft | 348 kts | 297° |
| 2026-05-04 19:58 | 58.50604 | -135.27578 | 15374 ft | 351 kts | 293° |
| 2026-05-04 19:59 | 58.51611 | -135.31865 | 15967 ft | 355 kts | 291° |
| 2026-05-04 19:59 | 58.52619 | -135.36209 | 16584 ft | 359 kts | 292° |
| 2026-05-04 19:59 | 58.53650 | -135.40583 | 17178 ft | 363 kts | 292° |
| 2026-05-04 19:59 | 58.54720 | -135.44981 | 17737 ft | 366 kts | 292° |
| 2026-05-04 20:00 | 58.55815 | -135.49413 | 18253 ft | 370 kts | 292° |
| 2026-05-04 20:00 | 58.56928 | -135.53889 | 18764 ft | 374 kts | 292° |
| 2026-05-04 20:00 | 58.58057 | -135.58392 | 19249 ft | 375 kts | 292° |
| 2026-05-04 20:00 | 58.59173 | -135.62932 | 19701 ft | 377 kts | 292° |
| 2026-05-04 20:01 | 58.60288 | -135.67500 | 20156 ft | 379 kts | 291° |
| 2026-05-04 20:01 | 58.61407 | -135.72079 | 20633 ft | 380 kts | 291° |
| 2026-05-04 20:01 | 58.62527 | -135.76686 | 21106 ft | 382 kts | 291° |
| 2026-05-04 20:01 | 58.63649 | -135.81317 | 21558 ft | 384 kts | 291° |
| 2026-05-04 20:02 | 58.64777 | -135.85979 | 21961 ft | 386 kts | 291° |
| 2026-05-04 20:02 | 58.65906 | -135.90656 | 22417 ft | 387 kts | 291° |
| 2026-05-04 20:02 | 58.67040 | -135.95361 | 22851 ft | 389 kts | 291° |
| 2026-05-04 20:02 | 58.68161 | -136.00030 | 23247 ft | 391 kts | 290° |
| 2026-05-04 20:03 | 58.69301 | -136.04785 | 23637 ft | 393 kts | 290° |
| 2026-05-04 20:03 | 58.70443 | -136.09565 | 23973 ft | 394 kts | 290° |
| 2026-05-04 20:03 | 58.71592 | -136.14373 | 24281 ft | 396 kts | 290° |
| 2026-05-04 20:03 | 58.72744 | -136.19207 | 24582 ft | 398 kts | 290° |
| 2026-05-04 20:04 | 58.73896 | -136.24062 | 24871 ft | 400 kts | 290° |
| 2026-05-04 20:04 | 58.75054 | -136.28942 | 25163 ft | 402 kts | 290° |
| 2026-05-04 20:04 | 58.76215 | -136.33847 | 25442 ft | 403 kts | 290° |
| 2026-05-04 20:04 | 58.77382 | -136.38766 | 25721 ft | 405 kts | 290° |
| 2026-05-04 20:05 | 58.78539 | -136.43724 | 25994 ft | 406 kts | 289° |
| 2026-05-04 20:05 | 58.79672 | -136.48718 | 26249 ft | 408 kts | 289° |
| 2026-05-04 20:05 | 58.80832 | -136.53723 | 26453 ft | 410 kts | 290° |
| 2026-05-04 20:05 | 58.82014 | -136.58744 | 26724 ft | 411 kts | 290° |
| 2026-05-04 20:06 | 58.83200 | -136.63782 | 26994 ft | 413 kts | 289° |
| 2026-05-04 20:06 | 58.84382 | -136.68840 | 27243 ft | 414 kts | 289° |
| 2026-05-04 20:06 | 58.85564 | -136.73933 | 27485 ft | 416 kts | 289° |
| 2026-05-04 20:06 | 58.86744 | -136.79042 | 27689 ft | 417 kts | 289° |
| 2026-05-04 20:07 | 58.87928 | -136.84170 | 27912 ft | 419 kts | 289° |
| 2026-05-04 20:07 | 58.89115 | -136.89318 | 28128 ft | 420 kts | 289° |
| 2026-05-04 20:07 | 58.90304 | -136.94491 | 28330 ft | 421 kts | 289° |
| 2026-05-04 20:07 | 58.91495 | -136.99676 | 28542 ft | 423 kts | 289° |
| 2026-05-04 20:08 | 58.92687 | -137.04885 | 28759 ft | 424 kts | 289° |
| 2026-05-04 20:08 | 58.93882 | -137.10120 | 28940 ft | 426 kts | 289° |
| 2026-05-04 20:08 | 58.95078 | -137.15367 | 29138 ft | 427 kts | 288° |
| 2026-05-04 20:08 | 58.96271 | -137.20627 | 29297 ft | 428 kts | 288° |
| 2026-05-04 20:09 | 58.97473 | -137.25930 | 29488 ft | 429 kts | 288° |
| 2026-05-04 20:09 | 58.98673 | -137.31233 | 29678 ft | 430 kts | 288° |
| 2026-05-04 20:09 | 58.99874 | -137.36549 | 29832 ft | 430 kts | 288° |
| 2026-05-04 20:10 | 59.02280 | -137.47242 | 30016 ft | 433 kts | 288° |
| 2026-05-04 20:10 | 59.04712 | -137.57998 | 30321 ft | 436 kts | 288° |
| 2026-05-04 20:10 | 59.05904 | -137.63332 | 30479 ft | 436 kts | 287° |
| 2026-05-04 20:11 | 59.07108 | -137.68751 | 30613 ft | 437 kts | 288° |
| 2026-05-04 20:11 | 59.08313 | -137.74182 | 30762 ft | 438 kts | 287° |
| 2026-05-04 20:11 | 59.09517 | -137.79632 | 30897 ft | 439 kts | 287° |
| 2026-05-04 20:11 | 59.10721 | -137.85097 | 31028 ft | 440 kts | 287° |
| 2026-05-04 20:12 | 59.11924 | -137.90568 | 31156 ft | 440 kts | 287° |
| 2026-05-04 20:12 | 59.13128 | -137.96059 | 31288 ft | 441 kts | 287° |
| 2026-05-04 20:12 | 59.14332 | -138.01557 | 31438 ft | 441 kts | 287° |
| 2026-05-04 20:13 | 59.16346 | -138.10813 | 31592 ft | 444 kts | 287° |
| 2026-05-04 20:13 | 59.17549 | -138.16356 | 31705 ft | 444 kts | 287° |
| 2026-05-04 20:13 | 59.18753 | -138.21912 | 31769 ft | 446 kts | 287° |
| 2026-05-04 20:14 | 59.21170 | -138.33130 | 31922 ft | 449 kts | 286° |
| 2026-05-04 20:14 | 59.22377 | -138.38752 | 32079 ft | 449 kts | 286° |
| 2026-05-04 20:14 | 59.23583 | -138.44379 | 32133 ft | 451 kts | 286° |
| 2026-05-04 20:15 | 59.25965 | -138.55537 | 32155 ft | 442 kts | 285° |
| 2026-05-04 20:15 | 59.28318 | -138.66630 | 32161 ft | 442 kts | 285° |
| 2026-05-04 20:16 | 59.30668 | -138.77770 | 32147 ft | 443 kts | 285° |
| 2026-05-04 20:16 | 59.33008 | -138.88916 | 32170 ft | 443 kts | 285° |
| 2026-05-04 20:17 | 59.35342 | -139.00109 | 32155 ft | 445 kts | 285° |
| 2026-05-04 20:17 | 59.37679 | -139.11370 | 32153 ft | 446 kts | 285° |
| 2026-05-04 20:18 | 59.40014 | -139.22674 | 32152 ft | 448 kts | 285° |
| 2026-05-04 20:18 | 59.42344 | -139.34021 | 32157 ft | 449 kts | 284° |
| 2026-05-04 20:19 | 59.44669 | -139.45413 | 32155 ft | 450 kts | 284° |
| 2026-05-04 20:19 | 59.46990 | -139.56848 | 32154 ft | 451 kts | 284° |
| 2026-05-04 20:20 | 59.49292 | -139.68259 | 32157 ft | 452 kts | 284° |
| 2026-05-04 20:20 | 59.51603 | -139.79777 | 32156 ft | 452 kts | 284° |
| 2026-05-04 20:21 | 59.53907 | -139.91322 | 32146 ft | 453 kts | 284° |
| 2026-05-04 20:21 | 59.57351 | -140.08712 | 32149 ft | 454 kts | 283° |
| 2026-05-04 20:22 | 59.59621 | -140.20261 | 32147 ft | 454 kts | 283° |
| 2026-05-04 20:22 | 59.61898 | -140.31910 | 32145 ft | 455 kts | 283° |
| 2026-05-04 20:23 | 59.64167 | -140.43590 | 32144 ft | 456 kts | 283° |
| 2026-05-04 20:23 | 59.66430 | -140.55299 | 32141 ft | 456 kts | 283° |
| 2026-05-04 20:24 | 59.68683 | -140.67044 | 32141 ft | 457 kts | 283° |
| 2026-05-04 20:24 | 59.70930 | -140.78818 | 32137 ft | 457 kts | 282° |
| 2026-05-04 20:25 | 59.73171 | -140.90622 | 32134 ft | 458 kts | 282° |
| 2026-05-04 20:25 | 59.75404 | -141.02472 | 32131 ft | 458 kts | 282° |
| 2026-05-04 20:26 | 59.77627 | -141.14334 | 32133 ft | 459 kts | 282° |
| 2026-05-04 20:26 | 59.79842 | -141.26222 | 32129 ft | 460 kts | 282° |
| 2026-05-04 20:27 | 59.82052 | -141.38158 | 32125 ft | 460 kts | 282° |
| 2026-05-04 20:27 | 59.84249 | -141.50106 | 32124 ft | 461 kts | 282° |
| 2026-05-04 20:28 | 59.86441 | -141.62099 | 32123 ft | 461 kts | 281° |
| 2026-05-04 20:28 | 59.88610 | -141.74033 | 32119 ft | 462 kts | 281° |
| 2026-05-04 20:29 | 59.90782 | -141.86066 | 32122 ft | 462 kts | 281° |
| 2026-05-04 20:29 | 59.92947 | -141.98139 | 32109 ft | 462 kts | 281° |
| 2026-05-04 20:30 | 59.95102 | -142.10233 | 32112 ft | 463 kts | 281° |
| 2026-05-04 20:30 | 59.97247 | -142.22357 | 32112 ft | 463 kts | 281° |
| 2026-05-04 20:31 | 59.99386 | -142.34510 | 32110 ft | 464 kts | 281° |
| 2026-05-04 20:31 | 60.01515 | -142.46683 | 32112 ft | 464 kts | 281° |
| 2026-05-04 20:32 | 60.03635 | -142.58902 | 32112 ft | 465 kts | 280° |
| 2026-05-04 20:32 | 60.05746 | -142.71132 | 32113 ft | 465 kts | 280° |
| 2026-05-04 20:33 | 60.07848 | -142.83395 | 32113 ft | 466 kts | 280° |
| 2026-05-04 20:33 | 60.09924 | -142.95599 | 32114 ft | 466 kts | 280° |
| 2026-05-04 20:34 | 60.12009 | -143.07926 | 32116 ft | 467 kts | 280° |
| 2026-05-04 20:34 | 60.14081 | -143.20276 | 32116 ft | 468 kts | 279° |
| 2026-05-04 20:35 | 60.16148 | -143.32674 | 32112 ft | 468 kts | 279° |
| 2026-05-04 20:35 | 60.18206 | -143.45091 | 32105 ft | 469 kts | 279° |
| 2026-05-04 20:36 | 60.20256 | -143.57553 | 32111 ft | 470 kts | 279° |
| 2026-05-04 20:36 | 60.22295 | -143.70043 | 32109 ft | 471 kts | 279° |
| 2026-05-04 20:37 | 60.24328 | -143.82570 | 32109 ft | 471 kts | 279° |
| 2026-05-04 20:37 | 60.26350 | -143.95129 | 32103 ft | 472 kts | 279° |
| 2026-05-04 20:38 | 60.28363 | -144.07715 | 32102 ft | 472 kts | 279° |
| 2026-05-04 20:38 | 60.30366 | -144.20324 | 32096 ft | 472 kts | 279° |
| 2026-05-04 20:39 | 60.32358 | -144.32962 | 32105 ft | 473 kts | 278° |
| 2026-05-04 20:39 | 60.34339 | -144.45632 | 32117 ft | 474 kts | 278° |
| 2026-05-04 20:40 | 60.36312 | -144.58333 | 32098 ft | 474 kts | 278° |
| 2026-05-04 20:40 | 60.38276 | -144.71075 | 32116 ft | 475 kts | 278° |
| 2026-05-04 20:41 | 60.40219 | -144.83766 | 32100 ft | 476 kts | 278° |
| 2026-05-04 20:41 | 60.42177 | -144.96649 | 32135 ft | 476 kts | 278° |
| 2026-05-04 20:42 | 60.44102 | -145.09413 | 32114 ft | 478 kts | 278° |
| 2026-05-04 20:42 | 60.46042 | -145.22383 | 32114 ft | 478 kts | 278° |
| 2026-05-04 20:43 | 60.47946 | -145.35190 | 32111 ft | 478 kts | 278° |
| 2026-05-04 20:43 | 60.49847 | -145.48101 | 32111 ft | 478 kts | 278° |
| 2026-05-04 20:44 | 60.51741 | -145.61037 | 32109 ft | 478 kts | 277° |
| 2026-05-04 20:44 | 60.53620 | -145.73989 | 32129 ft | 478 kts | 277° |
| 2026-05-04 20:45 | 60.55487 | -145.86964 | 32111 ft | 479 kts | 277° |
| 2026-05-04 20:45 | 60.57345 | -145.99967 | 32127 ft | 479 kts | 277° |
| 2026-05-04 20:46 | 60.59192 | -146.12996 | 32121 ft | 479 kts | 277° |
| 2026-05-04 20:46 | 60.61027 | -146.26048 | 32126 ft | 480 kts | 277° |
| 2026-05-04 20:47 | 60.62849 | -146.39125 | 32135 ft | 480 kts | 277° |
| 2026-05-04 20:47 | 60.64660 | -146.52230 | 32135 ft | 481 kts | 277° |
| 2026-05-04 20:48 | 60.66460 | -146.65350 | 32132 ft | 481 kts | 277° |
| 2026-05-04 20:48 | 60.68251 | -146.78505 | 32132 ft | 481 kts | 277° |
| 2026-05-04 20:49 | 60.70027 | -146.91680 | 32132 ft | 482 kts | 277° |
| 2026-05-04 20:49 | 60.71795 | -147.04883 | 32127 ft | 482 kts | 276° |
| 2026-05-04 20:50 | 60.73538 | -147.18021 | 32130 ft | 482 kts | 276° |
| 2026-05-04 20:50 | 60.75280 | -147.31269 | 32126 ft | 483 kts | 276° |
| 2026-05-04 20:51 | 60.77010 | -147.44538 | 32119 ft | 483 kts | 276° |
| 2026-05-04 20:51 | 60.78728 | -147.57829 | 32124 ft | 483 kts | 276° |
| 2026-05-04 20:52 | 60.80435 | -147.71149 | 32124 ft | 484 kts | 276° |
| 2026-05-04 20:52 | 60.82108 | -147.84319 | 31394 ft | 468 kts | 276° |
| 2026-05-04 20:53 | 60.82924 | -147.90775 | 30514 ft | 467 kts | 276° |
| 2026-05-04 20:53 | 60.83731 | -147.97193 | 29688 ft | 462 kts | 276° |
| 2026-05-04 20:53 | 60.84524 | -148.03532 | 28964 ft | 456 kts | 276° |
| 2026-05-04 20:53 | 60.85306 | -148.09791 | 28230 ft | 450 kts | 276° |
| 2026-05-04 20:54 | 60.86074 | -148.15990 | 27503 ft | 446 kts | 277° |
| 2026-05-04 20:54 | 60.86834 | -148.22119 | 26796 ft | 441 kts | 277° |
| 2026-05-04 20:54 | 60.87583 | -148.28185 | 26114 ft | 436 kts | 277° |
| 2026-05-04 20:54 | 60.88317 | -148.34192 | 25455 ft | 432 kts | 277° |
| 2026-05-04 20:55 | 60.89039 | -148.40142 | 24875 ft | 427 kts | 278° |
| 2026-05-04 20:55 | 60.89761 | -148.46036 | 24263 ft | 423 kts | 278° |
| 2026-05-04 20:55 | 60.90466 | -148.51849 | 23858 ft | 414 kts | 278° |
| 2026-05-04 20:55 | 60.91142 | -148.57443 | 23474 ft | 404 kts | 278° |
| 2026-05-04 20:56 | 60.91811 | -148.62994 | 22959 ft | 397 kts | 277° |
| 2026-05-04 20:56 | 60.92463 | -148.68478 | 22363 ft | 394 kts | 277° |
| 2026-05-04 20:56 | 60.93111 | -148.73937 | 21732 ft | 391 kts | 277° |
| 2026-05-04 20:56 | 60.93753 | -148.79345 | 21159 ft | 388 kts | 277° |
| 2026-05-04 20:57 | 60.94388 | -148.84718 | 20632 ft | 385 kts | 277° |
| 2026-05-04 20:57 | 60.95018 | -148.90052 | 20134 ft | 383 kts | 276° |
| 2026-05-04 20:57 | 60.95641 | -148.95357 | 19630 ft | 380 kts | 276° |
| 2026-05-04 20:57 | 60.96248 | -149.00622 | 19132 ft | 378 kts | 276° |
| 2026-05-04 20:58 | 60.96862 | -149.05872 | 18616 ft | 376 kts | 276° |
| 2026-05-04 20:58 | 60.97469 | -149.11089 | 18137 ft | 374 kts | 276° |
| 2026-05-04 20:58 | 60.98068 | -149.16269 | 17678 ft | 370 kts | 276° |
| 2026-05-04 20:58 | 60.98660 | -149.21408 | 17183 ft | 367 kts | 276° |
| 2026-05-04 20:59 | 60.99244 | -149.26511 | 16761 ft | 365 kts | 276° |
| 2026-05-04 20:59 | 60.99819 | -149.31565 | 16429 ft | 361 kts | 276° |
| 2026-05-04 20:59 | 61.00436 | -149.36579 | 16086 ft | 361 kts | 278° |
| 2026-05-04 20:59 | 61.01116 | -149.41554 | 15744 ft | 360 kts | 280° |
| 2026-05-04 21:00 | 61.01699 | -149.45450 | 15456 ft | 358 kts | 280° |
| 2026-05-04 21:00 | 61.01824 | -149.46278 | 15378 ft | 358 kts | 281° |
| 2026-05-04 21:00 | 61.02403 | -149.50123 | 15025 ft | 356 kts | 281° |
| 2026-05-04 21:00 | 61.03139 | -149.54969 | 14649 ft | 353 kts | 281° |
| 2026-05-04 21:01 | 61.03866 | -149.59793 | 14240 ft | 350 kts | 280° |
| 2026-05-04 21:01 | 61.04568 | -149.64586 | 13879 ft | 348 kts | 280° |
| 2026-05-04 21:01 | 61.05255 | -149.69348 | 13402 ft | 345 kts | 280° |
| 2026-05-04 21:01 | 61.05930 | -149.74051 | 13146 ft | 336 kts | 280° |
| 2026-05-04 21:02 | 61.06572 | -149.78519 | 13107 ft | 313 kts | 279° |
| 2026-05-04 21:02 | 61.06972 | -149.81313 | 13066 ft | 300 kts | 279° |
| 2026-05-04 21:02 | 61.07558 | -149.85316 | 13005 ft | 283 kts | 279° |
| 2026-05-04 21:02 | 61.08024 | -149.88741 | 12896 ft | 271 kts | 277° |
| 2026-05-04 21:03 | 61.08439 | -149.91927 | 12773 ft | 261 kts | 277° |
| 2026-05-04 21:03 | 61.08605 | -149.93203 | 12708 ft | 258 kts | 276° |
| 2026-05-04 21:03 | 61.09070 | -149.96763 | 12370 ft | 256 kts | 277° |
| 2026-05-04 21:03 | 61.09598 | -150.00284 | 11986 ft | 257 kts | 281° |
| 2026-05-04 21:04 | 61.10028 | -150.03127 | 11696 ft | 255 kts | 278° |
| 2026-05-04 21:04 | 61.10428 | -150.06115 | 11422 ft | 252 kts | 276° |
| 2026-05-04 21:04 | 61.10847 | -150.09617 | 11059 ft | 251 kts | 275° |
| 2026-05-04 21:05 | 61.11254 | -150.13115 | 10705 ft | 249 kts | 274° |
| 2026-05-04 21:05 | 61.11611 | -150.16614 | 10360 ft | 248 kts | 275° |
| 2026-05-04 21:05 | 61.11981 | -150.20093 | 10006 ft | 247 kts | 274° |
| 2026-05-04 21:05 | 61.12316 | -150.23583 | 9622 ft | 247 kts | 273° |
| 2026-05-04 21:06 | 61.12619 | -150.27075 | 9273 ft | 246 kts | 272° |
| 2026-05-04 21:06 | 61.12709 | -150.28120 | 9152 ft | 247 kts | 272° |
| 2026-05-04 21:06 | 61.12865 | -150.29958 | 8952 ft | 246 kts | 272° |
| 2026-05-04 21:07 | 61.13157 | -150.33403 | 8775 ft | 236 kts | 272° |
| 2026-05-04 21:07 | 61.13346 | -150.36629 | 8713 ft | 216 kts | 265° |
| 2026-05-04 21:07 | 61.13448 | -150.39642 | 8479 ft | 206 kts | 264° |
| 2026-05-04 21:07 | 61.13528 | -150.42614 | 8042 ft | 208 kts | 264° |
| 2026-05-04 21:08 | 61.13594 | -150.45601 | 7619 ft | 208 kts | 263° |
| 2026-05-04 21:08 | 61.13655 | -150.48598 | 7204 ft | 208 kts | 263° |
| 2026-05-04 21:08 | 61.13711 | -150.51595 | 6795 ft | 208 kts | 263° |
| 2026-05-04 21:08 | 61.13763 | -150.54585 | 6392 ft | 208 kts | 263° |
| 2026-05-04 21:09 | 61.13908 | -150.57573 | 5928 ft | 214 kts | 285° |
| 2026-05-04 21:09 | 61.14796 | -150.60022 | 5420 ft | 215 kts | 332° |
| 2026-05-04 21:09 | 61.16173 | -150.60742 | 5127 ft | 198 kts | 14° |
| 2026-05-04 21:09 | 61.17350 | -150.59703 | 4843 ft | 177 kts | 55° |
| 2026-05-04 21:10 | 61.17806 | -150.57597 | 4541 ft | 158 kts | 98° |
| 2026-05-04 21:10 | 61.17370 | -150.55588 | 4193 ft | 156 kts | 128° |
| 2026-05-04 21:10 | 61.16661 | -150.53884 | 3870 ft | 154 kts | 130° |
| 2026-05-04 21:10 | 61.15914 | -150.52196 | 3295 ft | 167 kts | 131° |
| 2026-05-04 21:11 | 61.15121 | -150.50506 | 3107 ft | 161 kts | 132° |
| 2026-05-04 21:11 | 61.14418 | -150.48723 | 2684 ft | 159 kts | 107° |
| 2026-05-04 21:11 | 61.14554 | -150.46408 | 2563 ft | 178 kts | 62° |
| 2026-05-04 21:11 | 61.15256 | -150.44258 | 2510 ft | 180 kts | 57° |
| 2026-05-04 21:12 | 61.15851 | -150.42109 | 2210 ft | 167 kts | 66° |
| 2026-05-04 21:12 | 61.16229 | -150.39965 | 2038 ft | 149 kts | 71° |
| 2026-05-04 21:12 | 61.16535 | -150.37947 | 1853 ft | 149 kts | 73° |
| 2026-05-04 21:12 | 61.16717 | -150.35958 | 1807 ft | 135 kts | 79° |
| 2026-05-04 21:13 | 61.16830 | -150.34068 | 1747 ft | 135 kts | 85° |
| 2026-05-04 21:13 | 61.16831 | -150.32111 | 1800 ft | 139 kts | 85° |
| 2026-05-04 21:13 | 61.16842 | -150.30124 | 1819 ft | 140 kts | 86° |
| 2026-05-04 21:13 | 61.16871 | -150.28085 | 1760 ft | 139 kts | 84° |
| 2026-05-04 21:14 | 61.16917 | -150.26142 | 1692 ft | 132 kts | 83° |
| 2026-05-04 21:14 | 61.16970 | -150.24246 | 1539 ft | 134 kts | 84° |
| 2026-05-04 21:14 | 61.16969 | -150.22284 | 1518 ft | 138 kts | 88° |
| 2026-05-04 21:14 | 61.16920 | -150.20275 | 1522 ft | 141 kts | 88° |
| 2026-05-04 21:15 | 61.16872 | -150.18217 | 1459 ft | 142 kts | 85° |
| 2026-05-04 21:15 | 61.16859 | -150.16179 | 1375 ft | 141 kts | 84° |
| 2026-05-04 21:15 | 61.16893 | -150.14201 | 1197 ft | 136 kts | 84° |
| 2026-05-04 21:15 | 61.16933 | -150.12261 | 952 ft | 135 kts | 85° |
| 2026-05-04 21:16 | 61.16969 | -150.10253 | 751 ft | 144 kts | 87° |
| 2026-05-04 21:16 | 61.16960 | -150.08164 | 701 ft | 146 kts | 88° |
| 2026-05-04 21:16 | 61.16972 | -150.06051 | 561 ft | 149 kts | 87° |
| 2026-05-04 21:16 | 61.16969 | -150.03932 | 346 ft | 142 kts | 88° |
| 2026-05-04 21:17 | 61.16968 | -150.01865 | 232 ft | 149 kts | 87° |
| 2026-05-04 21:17 | 61.16972 | -149.99756 | 142 ft | 136 kts | 88° |
| 2026-05-04 21:17 | 61.16980 | -149.98164 | 143 ft | 85 kts | 90° |
| 2026-05-04 21:17 | 61.16981 | -149.97200 | 149 ft | 49 kts | 89° |
| 2026-05-04 21:18 | 61.16991 | -149.96861 | 148 ft | 15 kts | 56° |
| 2026-05-04 21:18 | 61.17041 | -149.96810 | 146 ft | 1 kts | 360° |
| 2026-05-04 21:18 | 61.17069 | -149.96810 | 143 ft | 7 kts | 1° |
| 2026-05-04 21:18 | 61.17106 | -149.96823 | 145 ft | 2 kts | 324° |
| 2026-05-04 21:19 | 61.17131 | -149.96943 | 145 ft | 12 kts | 264° |
| 2026-05-04 21:19 | 61.17130 | -149.97123 | 146 ft | 14 kts | 266° |
| 2026-05-04 21:19 | 61.17123 | -149.97332 | 146 ft | 15 kts | 266° |
| 2026-05-04 21:19 | 61.17116 | -149.97552 | 146 ft | 16 kts | 270° |
| 2026-05-04 21:20 | 61.17117 | -149.97781 | 145 ft | 16 kts | 270° |
| 2026-05-04 21:20 | 61.17117 | -149.98023 | 145 ft | 17 kts | 270° |
| 2026-05-04 21:20 | 61.17117 | -149.98277 | 144 ft | 18 kts | 270° |
| 2026-05-04 21:20 | 61.17117 | -149.98544 | 144 ft | 19 kts | 270° |
| 2026-05-04 21:21 | 61.17167 | -149.98725 | 142 ft | 12 kts | 337° |
| 2026-05-04 21:21 | 61.17252 | -149.98795 | 143 ft | 16 kts | 341° |
| 2026-05-04 21:21 | 61.17377 | -149.98887 | 141 ft | 20 kts | 340° |
| 2026-05-04 21:21 | 61.17467 | -149.99022 | 143 ft | 9 kts | 265° |
| 2026-05-04 21:22 | 61.17445 | -149.99153 | 143 ft | 13 kts | 254° |
| 2026-05-04 21:22 | 61.17465 | -149.99290 | 141 ft | 9 kts | 329° |
| 2026-05-04 21:22 | 61.17535 | -149.99332 | 141 ft | 9 kts | 8° |
| 2026-05-04 21:22 | 61.17565 | -149.99288 | 142 ft | 5 kts | 60° |
| 2026-05-04 21:23 | 61.17584 | -149.99191 | 139 ft | 6 kts | 70° |
| 2026-05-04 21:23 | 61.17584 | -149.99189 | 139 ft | 0 kts | 70° |